| time (UTC) | temp F | wind direction | speed MPH | gust MPH | rain 1hr in | rain 24hr in | rain mn in | humidity % | barometer mb |
| 20260507203043 | 48 | 103 | 11.0 | 17.0 | 0.00 | 0.00 | 0.00 | 53 | 1010.7 |
| 20260507201549 | 49 | 150 | 5.0 | 10.0 | 0.00 | 0.00 | 0.00 | 58 | 1010.9 |
| 20260507200055 | 48 | 105 | 3.0 | 7.0 | 0.00 | 0.00 | 0.00 | 64 | 1011.3 |
| 20260507194535 | 47 | 93 | 0.0 | 7.0 | 0.00 | 0.00 | 0.00 | 67 | 1011.6 |
| 20260507193039 | 47 | 66 | 5.0 | 11.0 | 0.00 | 0.00 | 0.00 | 56 | 1011.6 |
| 20260507191535 | 48 | 83 | 5.0 | 14.0 | 0.00 | 0.00 | 0.00 | 53 | 1011.4 |
| 20260507190034 | 48 | 46 | 7.0 | 12.0 | 0.00 | 0.00 | 0.00 | 52 | 1011.4 |
| 20260507184541 | 49 | 109 | 6.0 | 12.0 | 0.00 | 0.00 | 0.00 | 50 | 1011.8 |
| 20260507183038 | 49 | 155 | 5.0 | 15.0 | 0.00 | 0.00 | 0.00 | 50 | 1011.7 |
| 20260507181538 | 49 | 113 | 6.0 | 11.0 | 0.00 | 0.00 | 0.00 | 50 | 1011.9 |
| 20260507180039 | 50 | 128 | 6.0 | 13.0 | 0.00 | 0.00 | 0.00 | 49 | 1012.2 |
| 20260507174541 | 52 | 129 | 4.0 | 12.0 | 0.00 | 0.00 | 0.00 | 47 | 1012.2 |
| 20260507173039 | 55 | 255 | 5.0 | 12.0 | 0.00 | 0.00 | 0.00 | 41 | 1012.2 |
| 20260507171538 | 53 | 251 | 6.0 | 15.0 | 0.00 | 0.00 | 0.00 | 40 | 1012.6 |
| 20260507170038 | 53 | 246 | 3.0 | 7.0 | 0.00 | 0.00 | 0.00 | 41 | 1012.9 |
| 20260507164540 | 52 | 207 | 3.0 | 11.0 | 0.00 | 0.00 | 0.00 | 43 | 1013.1 |
| 20260507163041 | 51 | 293 | 3.0 | 8.0 | 0.00 | 0.00 | 0.00 | 46 | 1013.2 |
| 20260507161541 | 50 | 283 | 1.0 | 5.0 | 0.00 | 0.00 | 0.00 | 45 | 1013.4 |
| 20260507160041 | 50 | 274 | 3.0 | 6.0 | 0.00 | 0.00 | 0.00 | 44 | 1013.8 |
| 20260507154542 | 48 | 246 | 2.0 | 5.0 | 0.00 | 0.00 | 0.00 | 48 | 1013.9 |
| 20260507153038 | 47 | 228 | 2.0 | 7.0 | 0.00 | 0.00 | 0.00 | 50 | 1014.1 |
| 20260507151536 | 46 | 269 | 3.0 | 9.0 | 0.00 | 0.00 | 0.00 | 51 | 1014.4 |
| 20260507150036 | 45 | 238 | 5.0 | 9.0 | 0.00 | 0.00 | 0.00 | 51 | 1014.5 |
| 20260507144539 | 44 | 224 | 3.0 | 6.0 | 0.00 | 0.00 | 0.00 | 56 | 1014.6 |
| 20260507143039 | 42 | 270 | 3.0 | 7.0 | 0.00 | 0.00 | 0.00 | 60 | 1014.7 |
| 20260507141539 | 42 | 353 | 1.0 | 7.0 | 0.00 | 0.00 | 0.00 | 65 | 1015.2 |
| 20260507140036 | 41 | 316 | 2.0 | 9.0 | 0.00 | 0.00 | 0.00 | 67 | 1015.3 |
| 20260507134542 | 40 | 311 | 3.0 | 7.0 | 0.00 | 0.00 | 0.00 | 69 | 1015.5 |
| 20260507133056 | 40 | 327 | 5.0 | 10.0 | 0.00 | 0.00 | 0.00 | 66 | 1015.4 |
| 20260507131545 | 41 | 259 | 7.0 | 15.0 | 0.00 | 0.00 | 0.00 | 59 | 1015.6 |
| 20260507130054 | 41 | 278 | 3.0 | 7.0 | 0.00 | 0.00 | 0.00 | 56 | 1015.4 |
| 20260507124537 | 41 | 263 | 4.0 | 9.0 | 0.00 | 0.00 | 0.00 | 56 | 1015.2 |
| 20260507123036 | 40 | 245 | 4.0 | 9.0 | 0.00 | 0.00 | 0.00 | 58 | 1015.2 |
| 20260507121540 | 39 | 243 | 2.0 | 5.0 | 0.00 | 0.00 | 0.00 | 63 | 1015.2 |
| 20260507120052 | 37 | 244 | 2.0 | 6.0 | 0.00 | 0.00 | 0.00 | 65 | 1015.1 |
| 20260507114612 | 36 | 250 | 3.0 | 4.0 | 0.00 | 0.00 | 0.00 | 66 | 1014.9 |
| 20260507113038 | 35 | 230 | 1.0 | 5.0 | 0.00 | 0.00 | 0.00 | 69 | 1014.8 |
| 20260507111537 | 34 | 233 | 1.0 | 3.0 | 0.00 | 0.00 | 0.00 | 71 | 1014.6 |
| 20260507110036 | 33 | 231 | 0.0 | 2.0 | 0.00 | 0.00 | 0.00 | 72 | 1014.2 |
| 20260507104535 | 33 | 240 | 0.0 | 3.0 | 0.00 | 0.00 | 0.00 | 72 | 1014.5 |
| 20260507103040 | 33 | 239 | 1.0 | 3.0 | 0.00 | 0.00 | 0.00 | 72 | 1014.6 |
| 20260507101543 | 33 | 243 | 2.0 | 3.0 | 0.00 | 0.00 | 0.00 | 72 | 1014.6 |
| 20260507100039 | 33 | 220 | 1.0 | 3.0 | 0.00 | 0.00 | 0.00 | 72 | 1014.6 |
| 20260507094536 | 33 | 255 | 0.0 | 3.0 | 0.00 | 0.00 | 0.00 | 72 | 1014.3 |
| 20260507093035 | 33 | 0 | 0.0 | 1.0 | 0.00 | 0.00 | 0.00 | 72 | 1014.2 |
| 20260507091546 | 34 | 231 | 0.0 | 2.0 | 0.00 | 0.00 | 0.00 | 70 | 1014.3 |
| 20260507090041 | 35 | 0 | 1.0 | 3.0 | 0.00 | 0.00 | 0.00 | 69 | 1014.3 |
| 20260507084548 | 35 | 253 | 2.0 | 4.0 | 0.00 | 0.00 | 0.00 | 69 | 1014.6 |
| 20260507083036 | 35 | 260 | 2.0 | 4.0 | 0.00 | 0.00 | 0.00 | 69 | 1014.5 |
| 20260507081540 | 35 | 233 | 0.0 | 1.0 | 0.00 | 0.00 | 0.00 | 69 | 1014.2 |
| 20260507080044 | 35 | 235 | 1.0 | 2.0 | 0.00 | 0.00 | 0.00 | 70 | 1014.3 |
| 20260507074534 | 35 | 0 | 0.0 | 2.0 | 0.00 | 0.00 | 0.00 | 69 | 1014.5 |
| 20260507073036 | 35 | 0 | 0.0 | 2.0 | 0.00 | 0.00 | 0.00 | 69 | 1014.5 |
| 20260507071535 | 35 | 236 | 0.0 | 0.0 | 0.00 | 0.00 | 0.00 | 70 | 1014.6 |
| 20260507070035 | 36 | 0 | 0.0 | 1.0 | 0.00 | 0.00 | 0.00 | 67 | 1014.8 |
| 20260507064535 | 37 | 236 | 0.0 | 2.0 | 0.00 | 0.00 | 0.00 | 67 | 1015.2 |
| 20260507063038 | 37 | 221 | 0.0 | 2.0 | 0.00 | 0.00 | 0.00 | 66 | 1015.2 |
| 20260507061538 | 38 | 246 | 0.0 | 1.0 | 0.00 | 0.00 | 0.00 | 64 | 1015.1 |
| 20260507060036 | 39 | 262 | 0.0 | 2.0 | 0.00 | 0.00 | 0.00 | 61 | 1015.1 |
| 20260507054539 | 39 | 305 | 1.0 | 5.0 | 0.00 | 0.00 | 0.00 | 60 | 1015.2 |
| 20260507053033 | 39 | 0 | 0.0 | 2.0 | 0.00 | 0.00 | 0.00 | 60 | 1015.2 |
| 20260507051534 | 39 | 0 | 0.0 | 1.0 | 0.00 | 0.00 | 0.00 | 60 | 1015.2 |
| 20260507050038 | 40 | 0 | 0.0 | 2.0 | 0.00 | 0.00 | 0.00 | 58 | 1015.2 |
| 20260507044538 | 41 | 0 | 0.0 | 1.0 | 0.00 | 0.00 | 0.00 | 57 | 1015.4 |
| 20260507043036 | 41 | 305 | 1.0 | 5.0 | 0.00 | 0.00 | 0.00 | 56 | 1015.3 |
| 20260507041536 | 42 | 328 | 2.0 | 5.0 | 0.00 | 0.00 | 0.00 | 55 | 1015.4 |
| 20260507040043 | 42 | 332 | 2.0 | 6.0 | 0.00 | 0.00 | 0.00 | 54 | 1015.4 |
| 20260507034537 | 43 | 295 | 4.0 | 7.0 | 0.00 | 0.00 | 0.00 | 53 | 1015.4 |
| 20260507033038 | 43 | 324 | 3.0 | 8.0 | 0.00 | 0.00 | 0.00 | 52 | 1015.6 |
| 20260507031537 | 44 | 290 | 4.0 | 10.0 | 0.00 | 0.00 | 0.00 | 51 | 1015.4 |
| 20260507030036 | 44 | 297 | 3.0 | 9.0 | 0.00 | 0.00 | 0.00 | 50 | 1015.4 |
| 20260507024533 | 45 | 308 | 4.0 | 11.0 | 0.00 | 0.00 | 0.00 | 49 | 1015.2 |
| 20260507023046 | 46 | 295 | 4.0 | 11.0 | 0.00 | 0.00 | 0.00 | 48 | 1015.1 |
| 20260507021544 | 46 | 266 | 5.0 | 11.0 | 0.00 | 0.00 | 0.00 | 48 | 1014.9 |
| 20260507020059 | 46 | 285 | 3.0 | 11.0 | 0.00 | 0.00 | 0.00 | 47 | 1014.7 |
| 20260507014537 | 47 | 285 | 5.0 | 15.0 | 0.00 | 0.00 | 0.00 | 46 | 1014.5 |
| 20260507013047 | 48 | 293 | 5.0 | 13.0 | 0.00 | 0.00 | 0.00 | 45 | 1014.2 |
| 20260507011536 | 48 | 295 | 4.0 | 13.0 | 0.00 | 0.00 | 0.00 | 45 | 1014.1 |
| 20260507010042 | 49 | 323 | 4.0 | 11.0 | 0.00 | 0.00 | 0.00 | 45 | 1013.9 |
| 20260507004551 | 49 | 261 | 5.0 | 10.0 | 0.00 | 0.00 | 0.00 | 43 | 1013.7 |
| 20260507003044 | 50 | 294 | 7.0 | 12.0 | 0.00 | 0.00 | 0.00 | 43 | 1013.6 |
| 20260507001543 | 50 | 307 | 3.0 | 12.0 | 0.00 | 0.00 | 0.00 | 43 | 1013.4 |
| 20260507000041 | 50 | 315 | 6.0 | 14.0 | 0.00 | 0.00 | 0.00 | 41 | 1013.3 |
| 20260506234544 | 50 | 231 | 3.0 | 12.0 | 0.00 | 0.00 | 0.00 | 42 | 1013.4 |
| 20260506233044 | 51 | 160 | 3.0 | 9.0 | 0.00 | 0.00 | 0.00 | 41 | 1013.2 |
| 20260506231539 | 51 | 299 | 5.0 | 14.0 | 0.00 | 0.00 | 0.00 | 41 | 1013.1 |
| 20260506230045 | 51 | 322 | 6.0 | 12.0 | 0.00 | 0.00 | 0.00 | 39 | 1013.2 |
| 20260506224536 | 51 | 293 | 4.0 | 11.0 | 0.00 | 0.00 | 0.00 | 41 | 1013.1 |
| 20260506223044 | 51 | 307 | 5.0 | 11.0 | 0.00 | 0.00 | 0.00 | 39 | 1012.9 |
| 20260506221539 | 51 | 219 | 5.0 | 11.0 | 0.00 | 0.00 | 0.00 | 40 | 1012.8 |
| 20260506220039 | 52 | 290 | 4.0 | 13.0 | 0.00 | 0.00 | 0.00 | 39 | 1012.8 |
| 20260506214541 | 52 | 328 | 2.0 | 12.0 | 0.00 | 0.00 | 0.00 | 39 | 1012.7 |
| 20260506213044 | 52 | 253 | 4.0 | 10.0 | 0.00 | 0.00 | 0.00 | 39 | 1012.9 |
| 20260506211536 | 53 | 233 | 4.0 | 11.0 | 0.00 | 0.00 | 0.00 | 39 | 1012.7 |
| 20260506210041 | 53 | 271 | 4.0 | 13.0 | 0.00 | 0.00 | 0.00 | 38 | 1012.7 |
| 20260506204538 | 53 | 245 | 3.0 | 9.0 | 0.00 | 0.00 | 0.00 | 39 | 1012.7 |